createdAt,value
2019-03-01T00:00:19.440Z,91.93
2019-03-01T00:00:45.551Z,91.74
2019-03-01T00:01:11.660Z,91.93
2019-03-01T00:01:37.767Z,91.83
2019-03-01T00:02:03.901Z,91.74
2019-03-01T00:02:30.009Z,91.93
2019-03-01T00:02:56.123Z,91.83
2019-03-01T00:03:22.223Z,91.74
2019-03-01T00:03:48.326Z,91.83
2019-03-01T00:04:14.432Z,91.74
2019-03-01T00:04:40.539Z,91.64
2019-03-01T00:05:06.653Z,91.64
2019-03-01T00:05:32.824Z,91.64
2019-03-01T00:05:58.953Z,91.78
2019-03-01T00:06:25.086Z,91.59
2019-03-01T00:06:51.217Z,91.36
2019-03-01T00:07:17.320Z,92.02
2019-03-01T00:07:43.461Z,91.83
2019-03-01T00:08:09.576Z,91.74
2019-03-01T00:08:35.712Z,91.74
2019-03-01T00:09:01.844Z,91.64
2019-03-01T00:09:27.958Z,91.83
2019-03-01T00:09:54.065Z,91.93
2019-03-01T00:10:20.175Z,91.83
2019-03-01T00:10:47.295Z,92.12
2019-03-01T00:11:13.408Z,92.21
2019-03-01T00:11:39.511Z,92.21
2019-03-01T00:12:05.651Z,92.02
2019-03-01T00:12:31.798Z,92.21
2019-03-01T00:12:57.907Z,92.31
2019-03-01T00:13:24.015Z,92.69
2019-03-01T00:13:50.116Z,92.6
2019-03-01T00:14:16.220Z,92.5
2019-03-01T00:14:42.332Z,92.69
2019-03-01T00:15:08.436Z,92.88
2019-03-01T00:15:34.572Z,92.69
2019-03-01T00:16:00.677Z,92.69
2019-03-01T00:16:26.787Z,92.69
2019-03-01T00:16:52.899Z,92.6
2019-03-01T00:17:19.004Z,92.79
2019-03-01T00:17:45.106Z,92.5
2019-03-01T00:18:11.215Z,92.88
2019-03-01T00:18:37.328Z,93.26
2019-03-01T00:19:03.433Z,93.17
2019-03-01T00:19:29.546Z,92.97
2019-03-01T00:19:55.649Z,93.36
2019-03-01T00:20:21.755Z,93.17
2019-03-01T00:20:47.862Z,92.5
2019-03-01T00:21:14.031Z,92.97
2019-03-01T00:21:40.141Z,92.69
2019-03-01T00:22:06.255Z,92.79
2019-03-01T00:22:32.359Z,92.6
2019-03-01T00:22:58.462Z,92.88
2019-03-01T00:23:24.570Z,92.69
2019-03-01T00:23:50.674Z,92.79
2019-03-01T00:24:16.786Z,93.17
2019-03-01T00:24:42.892Z,93.07
2019-03-01T00:25:09.003Z,93.36
2019-03-01T00:25:35.105Z,93.26
2019-03-01T00:26:01.219Z,93.26
2019-03-01T00:26:27.356Z,93.17
2019-03-01T00:26:53.465Z,93.36
2019-03-01T00:27:19.568Z,93.55
2019-03-01T00:27:45.674Z,93.17
2019-03-01T00:28:11.778Z,93.26
2019-03-01T00:28:37.892Z,93.84
2019-03-01T00:29:03.993Z,93.84
2019-03-01T00:29:30.121Z,93.93
2019-03-01T00:29:56.230Z,94.03
2019-03-01T00:30:22.340Z,94.79
2019-03-01T00:30:48.443Z,94.51
2019-03-01T00:31:14.548Z,94.22
2019-03-01T00:31:40.657Z,94.51
2019-03-01T00:32:06.783Z,94.22
2019-03-01T00:32:32.891Z,94.12
2019-03-01T00:32:58.998Z,94.79
2019-03-01T00:33:25.134Z,94.7
2019-03-01T00:33:51.238Z,94.22
2019-03-01T00:34:17.368Z,94.22
2019-03-01T00:34:43.477Z,94.51
2019-03-01T00:35:09.578Z,94.7
2019-03-01T00:35:35.689Z,94.41
2019-03-01T00:36:01.795Z,94.51
2019-03-01T00:36:27.933Z,94.6
2019-03-01T00:36:54.077Z,94.6
2019-03-01T00:37:20.182Z,94.31
2019-03-01T00:37:46.317Z,94.12
2019-03-01T00:38:12.426Z,94.51
2019-03-01T00:38:38.534Z,94.7
2019-03-01T00:39:04.636Z,94.79
2019-03-01T00:39:30.743Z,94.41
2019-03-01T00:39:56.858Z,94.98
2019-03-01T00:40:22.965Z,94.98
2019-03-01T00:40:49.060Z,94.79
2019-03-01T00:41:15.170Z,94.89
2019-03-01T00:41:41.275Z,94.89
2019-03-01T00:42:07.382Z,94.98
2019-03-01T00:42:33.491Z,94.89
2019-03-01T00:42:59.603Z,94.89
2019-03-01T00:43:25.703Z,94.79
2019-03-01T00:43:51.812Z,94.89
2019-03-01T00:44:17.917Z,94.41
2019-03-01T00:44:44.065Z,94.41
2019-03-01T00:45:10.161Z,94.6
2019-03-01T00:45:36.299Z,94.7
2019-03-01T00:46:02.413Z,94.7
2019-03-01T00:46:28.526Z,94.22
2019-03-01T00:46:54.654Z,94.12
2019-03-01T00:47:20.764Z,94.7
2019-03-01T00:47:46.870Z,94.41
2019-03-01T00:48:12.996Z,94.7
2019-03-01T00:48:39.105Z,94.7
2019-03-01T00:49:05.241Z,94.6
2019-03-01T00:49:31.383Z,94.51
2019-03-01T00:49:57.522Z,94.79
2019-03-01T00:50:23.657Z,94.51
2019-03-01T00:50:49.764Z,94.51
2019-03-01T00:51:15.872Z,94.79
2019-03-01T00:51:42.006Z,94.7
2019-03-01T00:52:08.117Z,94.51
2019-03-01T00:52:34.224Z,94.6
2019-03-01T00:53:00.337Z,95.27
2019-03-01T00:53:26.465Z,94.41
2019-03-01T00:53:52.571Z,94.41
2019-03-01T00:54:18.680Z,94.89
2019-03-01T00:54:44.790Z,94.7
2019-03-01T00:55:10.952Z,94.89
2019-03-01T00:55:37.055Z,94.79
2019-03-01T00:56:03.184Z,94.6
2019-03-01T00:56:29.299Z,94.89
2019-03-01T00:56:55.428Z,94.79
2019-03-01T00:57:21.537Z,94.7
2019-03-01T00:57:47.671Z,94.89
2019-03-01T00:58:13.778Z,94.89
2019-03-01T00:58:39.885Z,94.7
2019-03-01T00:59:05.986Z,94.79
2019-03-01T00:59:32.120Z,94.6
2019-03-01T00:59:58.219Z,94.89
2019-03-01T01:00:24.329Z,94.7
2019-03-01T01:00:50.427Z,94.6
2019-03-01T01:01:16.532Z,94.22
2019-03-01T01:01:42.646Z,94.6
2019-03-01T01:02:08.779Z,94.7
2019-03-01T01:02:34.914Z,94.51
2019-03-01T01:03:01.013Z,93.74
2019-03-01T01:03:27.125Z,93.93
2019-03-01T01:03:53.238Z,93.84
2019-03-01T01:04:19.340Z,93.84
2019-03-01T01:04:45.448Z,93.74
2019-03-01T01:05:11.553Z,94.51
2019-03-01T01:05:37.654Z,94.51
2019-03-01T01:06:03.809Z,94.79
2019-03-01T01:06:29.959Z,94.6
2019-03-01T01:06:56.064Z,94.6
2019-03-01T01:07:22.173Z,94.7
2019-03-01T01:07:48.282Z,94.6
2019-03-01T01:08:14.385Z,94.6
2019-03-01T01:08:40.494Z,94.22
2019-03-01T01:09:06.628Z,94.22
2019-03-01T01:09:32.734Z,94.41
2019-03-01T01:09:58.836Z,94.65
2019-03-01T01:10:24.948Z,94.56
2019-03-01T01:10:51.056Z,94.6
2019-03-01T01:11:17.164Z,94.84
2019-03-01T01:11:43.268Z,95.27
2019-03-01T01:12:09.384Z,94.93
2019-03-01T01:12:35.522Z,94.89
2019-03-01T01:13:01.626Z,94.41
2019-03-01T01:13:27.737Z,94.41
2019-03-01T01:13:53.848Z,94.51
2019-03-01T01:14:20.029Z,94.46
2019-03-01T01:14:46.096Z,94.89
2019-03-01T01:15:12.197Z,94.65
2019-03-01T01:15:38.315Z,94.89
2019-03-01T01:16:04.422Z,94.7
2019-03-01T01:16:30.558Z,94.36
2019-03-01T01:16:56.669Z,95.03
2019-03-01T01:17:22.774Z,94.46
2019-03-01T01:17:48.915Z,94.31
2019-03-01T01:18:15.056Z,94.56
2019-03-01T01:18:41.149Z,94.89
2019-03-01T01:19:07.260Z,94.89
2019-03-01T01:19:33.390Z,94.31
2019-03-01T01:19:59.502Z,94.6
2019-03-01T01:20:25.612Z,94.6
2019-03-01T01:20:51.716Z,95.08
2019-03-01T01:21:17.850Z,94.41
2019-03-01T01:21:43.989Z,94.7
2019-03-01T01:22:10.106Z,94.41
2019-03-01T01:22:36.235Z,94.41
2019-03-01T01:23:02.376Z,94.51
2019-03-01T01:23:28.481Z,94.6
2019-03-01T01:23:54.617Z,94.79
2019-03-01T01:24:20.712Z,94.51
2019-03-01T01:24:46.826Z,94.51
2019-03-01T01:25:12.931Z,94.51
2019-03-01T01:25:39.042Z,94.41
2019-03-01T01:26:05.149Z,94.51
2019-03-01T01:26:31.287Z,94.7
2019-03-01T01:26:57.399Z,94.79
2019-03-01T01:27:23.501Z,94.65
2019-03-01T01:27:50.646Z,94.79
2019-03-01T01:28:16.737Z,94.36
2019-03-01T01:28:42.842Z,94.46
2019-03-01T01:29:08.957Z,94.7
2019-03-01T01:29:35.060Z,94.41
2019-03-01T01:30:01.174Z,94.7
2019-03-01T01:30:27.282Z,94.79
2019-03-01T01:30:53.417Z,95.12
2019-03-01T01:31:19.580Z,95.17
2019-03-01T01:31:45.686Z,94.93
2019-03-01T01:32:11.795Z,95.12
2019-03-01T01:32:37.903Z,94.74
2019-03-01T01:33:04.015Z,95.03
2019-03-01T01:33:30.121Z,94.89
2019-03-01T01:33:56.232Z,94.46
2019-03-01T01:34:22.344Z,95.03
2019-03-01T01:34:48.447Z,94.93
2019-03-01T01:35:14.546Z,94.98
2019-03-01T01:35:40.658Z,94.79
2019-03-01T01:36:06.759Z,94.7
2019-03-01T01:36:32.870Z,95.17
2019-03-01T01:36:58.979Z,94.46
2019-03-01T01:37:25.091Z,94.84
2019-03-01T01:37:51.218Z,94.84
2019-03-01T01:38:17.318Z,95.12
2019-03-01T01:38:43.428Z,95.03
2019-03-01T01:39:09.530Z,94.65
2019-03-01T01:39:35.634Z,95.08
2019-03-01T01:40:01.745Z,94.74
2019-03-01T01:40:27.874Z,94.98
2019-03-01T01:40:53.986Z,95.22
2019-03-01T01:41:20.086Z,95.46
2019-03-01T01:41:46.201Z,95.51
2019-03-01T01:42:12.332Z,95.89
2019-03-01T01:42:38.434Z,95.7
2019-03-01T01:43:04.542Z,95.7
2019-03-01T01:43:30.648Z,96.03
2019-03-01T01:43:56.792Z,95.79
2019-03-01T01:44:22.922Z,95.7
2019-03-01T01:44:49.024Z,95.79
2019-03-01T01:45:15.163Z,95.79
2019-03-01T01:45:41.294Z,95.79
2019-03-01T01:46:07.469Z,96.03
2019-03-01T01:46:33.576Z,96.13
2019-03-01T01:46:59.681Z,96.27
2019-03-01T01:47:25.793Z,96.17
2019-03-01T01:47:51.922Z,95.79
2019-03-01T01:48:18.027Z,95.7
2019-03-01T01:48:44.140Z,95.7
2019-03-01T01:49:10.281Z,95.79
2019-03-01T01:49:36.386Z,95.79
2019-03-01T01:50:02.492Z,95.7
2019-03-01T01:50:28.598Z,95.89
2019-03-01T01:50:54.710Z,95.98
2019-03-01T01:51:20.815Z,95.89
2019-03-01T01:51:46.922Z,96.37
2019-03-01T01:52:13.023Z,96.56
2019-03-01T01:52:39.137Z,96.66
2019-03-01T01:53:05.298Z,96.94
2019-03-01T01:53:31.436Z,96.66
2019-03-01T01:53:57.542Z,97.22
2019-03-01T01:54:23.649Z,97.22
2019-03-01T01:54:49.758Z,96.75
2019-03-01T01:55:15.978Z,96.94
2019-03-01T01:55:42.085Z,97.32
2019-03-01T01:56:08.192Z,97.32
2019-03-01T01:56:34.293Z,97.32
2019-03-01T01:57:00.403Z,97.03
2019-03-01T01:57:26.509Z,97.03
2019-03-01T01:57:52.614Z,97.03
2019-03-01T01:58:18.723Z,97.42
2019-03-01T01:58:44.828Z,96.75
2019-03-01T01:59:10.965Z,96.84
2019-03-01T01:59:37.152Z,97.13
2019-03-01T02:00:03.273Z,96.84
2019-03-01T02:00:29.408Z,96.56
2019-03-01T02:00:55.515Z,96.84
2019-03-01T02:01:21.618Z,96.94
2019-03-01T02:01:47.755Z,96.94
2019-03-01T02:02:13.859Z,96.75
2019-03-01T02:02:39.974Z,97.32
2019-03-01T02:03:06.085Z,96.75
2019-03-01T02:03:32.187Z,97.03
2019-03-01T02:03:58.301Z,97.13
2019-03-01T02:04:24.407Z,97.03
2019-03-01T02:04:50.546Z,97.32
2019-03-01T02:05:16.674Z,97.22
2019-03-01T02:05:42.776Z,97.51
2019-03-01T02:06:08.890Z,97.61
2019-03-01T02:06:35.000Z,97.51
2019-03-01T02:07:01.104Z,97.42
2019-03-01T02:07:27.215Z,97.51
2019-03-01T02:07:53.348Z,97.03
2019-03-01T02:08:19.451Z,97.13
2019-03-01T02:08:45.552Z,97.71
2019-03-01T02:09:11.670Z,97.32
2019-03-01T02:09:37.806Z,97.71
2019-03-01T02:10:03.912Z,98.37
2019-03-01T02:10:30.017Z,98.47
2019-03-01T02:10:56.134Z,98.18
2019-03-01T02:11:22.236Z,98.56
2019-03-01T02:11:48.350Z,98.27
2019-03-01T02:12:14.487Z,98.94
2019-03-01T02:12:40.589Z,98.94
2019-03-01T02:13:06.727Z,99.42
2019-03-01T02:13:32.830Z,99.99
2019-03-01T02:13:58.943Z,99.9
2019-03-01T02:14:25.049Z,99.99
2019-03-01T02:14:51.156Z,99.8
2019-03-01T02:15:17.286Z,99.99
2019-03-01T02:15:43.396Z,99.99
2019-03-01T02:16:09.511Z,99.99
2019-03-01T02:16:35.637Z,99.99
2019-03-01T02:17:01.750Z,99.99
2019-03-01T02:17:27.858Z,99.99
2019-03-01T02:17:53.965Z,99.99
2019-03-01T02:18:20.108Z,99.99
2019-03-01T02:18:46.213Z,99.99
2019-03-01T02:19:13.779Z,99.99
2019-03-01T02:19:39.933Z,99.99
2019-03-01T02:20:06.040Z,99.99
2019-03-01T02:20:32.148Z,99.99
2019-03-01T02:20:58.256Z,99.99
2019-03-01T02:21:24.365Z,99.99
2019-03-01T02:21:50.499Z,99.99
2019-03-01T02:22:16.606Z,99.99
2019-03-01T02:22:42.741Z,99.99
2019-03-01T02:23:08.871Z,99.99
2019-03-01T02:23:35.014Z,99.99
2019-03-01T02:24:01.119Z,99.99
2019-03-01T02:24:27.278Z,99.99
2019-03-01T02:24:53.384Z,99.99
2019-03-01T02:25:19.517Z,99.99
2019-03-01T02:25:45.652Z,99.99
2019-03-01T02:26:11.760Z,99.99
2019-03-01T02:26:37.860Z,99.99
2019-03-01T02:27:03.964Z,99.99
2019-03-01T02:27:30.076Z,99.99
2019-03-01T02:27:56.178Z,99.99
2019-03-01T02:28:22.285Z,99.99
2019-03-01T02:28:48.397Z,99.99
2019-03-01T02:29:14.529Z,99.99
2019-03-01T02:29:40.670Z,99.99
2019-03-01T02:30:06.794Z,99.99
2019-03-01T02:30:32.969Z,99.99
2019-03-01T02:30:59.092Z,99.99
2019-03-01T02:31:25.255Z,99.99
2019-03-01T02:31:51.412Z,99.99
2019-03-01T02:32:17.580Z,99.99
2019-03-01T02:32:43.731Z,99.99
2019-03-01T02:33:09.827Z,99.99
2019-03-01T02:33:35.966Z,99.99
2019-03-01T02:34:02.100Z,99.99
2019-03-01T02:34:28.211Z,99.99
2019-03-01T02:34:54.316Z,99.99
2019-03-01T02:35:20.426Z,99.99
2019-03-01T02:35:46.590Z,99.99
2019-03-01T02:36:12.692Z,99.99
2019-03-01T02:36:38.822Z,99.99
2019-03-01T02:37:04.936Z,99.99
2019-03-01T02:37:31.074Z,99.99
2019-03-01T02:37:57.205Z,99.99
2019-03-01T02:38:23.337Z,99.99
2019-03-01T02:38:49.469Z,99.99
2019-03-01T02:39:15.574Z,99.99
2019-03-01T02:39:41.676Z,99.99
2019-03-01T02:40:07.790Z,99.99
2019-03-01T02:40:33.890Z,99.99
2019-03-01T02:41:00.032Z,99.99
2019-03-01T02:41:26.142Z,99.99
2019-03-01T02:41:52.272Z,99.99
2019-03-01T02:42:18.384Z,99.99
2019-03-01T02:42:44.556Z,99.99
2019-03-01T02:43:10.711Z,99.99
2019-03-01T02:43:36.816Z,99.99
2019-03-01T02:44:02.923Z,99.99
2019-03-01T02:44:29.059Z,99.99
2019-03-01T02:44:55.194Z,99.99
2019-03-01T02:45:21.379Z,99.99
2019-03-01T02:45:47.584Z,99.99
2019-03-01T02:46:13.797Z,99.99
2019-03-01T02:46:39.874Z,99.99
2019-03-01T02:47:05.986Z,99.99
2019-03-01T02:47:32.091Z,99.99
2019-03-01T02:47:58.272Z,99.99
2019-03-01T02:48:24.368Z,99.99
2019-03-01T02:48:50.496Z,99.99
2019-03-01T02:49:16.681Z,99.99
2019-03-01T02:49:42.779Z,99.99
2019-03-01T02:50:08.935Z,99.99
2019-03-01T02:50:35.116Z,99.99
2019-03-01T02:51:01.231Z,99.99
2019-03-01T02:51:27.393Z,99.99
2019-03-01T02:51:53.528Z,99.99
2019-03-01T02:52:19.630Z,99.99
2019-03-01T02:52:45.762Z,99.99
2019-03-01T02:53:11.892Z,99.99
2019-03-01T02:53:37.996Z,99.99
2019-03-01T02:54:04.108Z,99.99
2019-03-01T02:54:30.244Z,99.99
2019-03-01T02:54:56.381Z,99.99
2019-03-01T02:55:22.537Z,99.99
2019-03-01T02:55:48.671Z,99.99
2019-03-01T02:56:14.951Z,99.99
2019-03-01T02:56:41.057Z,99.99
2019-03-01T02:57:07.157Z,99.99
2019-03-01T02:57:33.267Z,99.99
2019-03-01T02:57:59.403Z,99.99
2019-03-01T02:58:25.510Z,99.99
2019-03-01T02:58:51.654Z,99.99
2019-03-01T02:59:17.760Z,99.99
2019-03-01T02:59:43.863Z,99.99
2019-03-01T03:00:09.977Z,99.99
2019-03-01T03:00:36.083Z,99.99
2019-03-01T03:01:02.195Z,99.99
2019-03-01T03:01:28.329Z,99.99
2019-03-01T03:01:54.434Z,99.99
2019-03-01T03:02:20.569Z,99.99
2019-03-01T03:02:46.808Z,99.99
2019-03-01T03:03:12.952Z,99.99
2019-03-01T03:03:39.067Z,99.99
2019-03-01T03:04:05.207Z,99.99
2019-03-01T03:04:31.336Z,99.99
2019-03-01T03:04:57.472Z,99.99
2019-03-01T03:05:23.583Z,99.99
2019-03-01T03:05:49.778Z,99.99
2019-03-01T03:06:15.943Z,99.99
2019-03-01T03:06:42.119Z,99.99
2019-03-01T03:07:08.294Z,99.99
2019-03-01T03:07:34.410Z,99.99
2019-03-01T03:08:00.540Z,99.99
2019-03-01T03:08:26.650Z,99.99
2019-03-01T03:08:52.748Z,99.99
2019-03-01T03:09:18.888Z,99.99
2019-03-01T03:09:45.020Z,99.99
2019-03-01T03:10:11.158Z,99.99
2019-03-01T03:10:37.263Z,99.99
2019-03-01T03:11:03.397Z,99.99
2019-03-01T03:11:29.507Z,99.99
2019-03-01T03:11:55.683Z,99.99
2019-03-01T03:12:21.841Z,99.99
2019-03-01T03:12:47.975Z,99.99
2019-03-01T03:13:14.162Z,99.99
2019-03-01T03:13:40.263Z,99.99
2019-03-01T03:14:06.405Z,99.99
2019-03-01T03:14:32.512Z,99.99
2019-03-01T03:14:58.632Z,99.99
2019-03-01T03:15:24.739Z,99.99
2019-03-01T03:15:50.849Z,99.99
2019-03-01T03:16:16.955Z,99.99
2019-03-01T03:16:43.097Z,99.99
2019-03-01T03:17:09.236Z,99.99
2019-03-01T03:17:35.345Z,99.99
2019-03-01T03:18:01.477Z,99.99
2019-03-01T03:18:27.586Z,99.99
2019-03-01T03:18:53.685Z,99.99
2019-03-01T03:19:19.820Z,99.99
2019-03-01T03:19:45.950Z,99.99
2019-03-01T03:20:12.081Z,99.99
2019-03-01T03:20:38.263Z,99.99
2019-03-01T03:21:04.363Z,99.99
2019-03-01T03:21:30.494Z,99.99
2019-03-01T03:21:56.628Z,99.99
2019-03-01T03:22:22.777Z,99.99
2019-03-01T03:22:48.910Z,99.99
2019-03-01T03:23:15.031Z,99.99
2019-03-01T03:23:41.224Z,99.99
2019-03-01T03:24:07.375Z,99.99
2019-03-01T03:24:33.483Z,99.99
2019-03-01T03:24:59.589Z,99.99
2019-03-01T03:25:25.705Z,99.99
2019-03-01T03:25:51.805Z,99.99
2019-03-01T03:26:17.934Z,99.99
2019-03-01T03:26:44.075Z,99.99
2019-03-01T03:27:10.205Z,99.99
2019-03-01T03:27:36.331Z,99.99
2019-03-01T03:28:02.495Z,99.99
2019-03-01T03:28:28.631Z,99.99
2019-03-01T03:28:54.781Z,99.99
2019-03-01T03:29:20.885Z,99.99
2019-03-01T03:29:47.019Z,99.99
2019-03-01T03:30:13.128Z,99.99
2019-03-01T03:30:39.299Z,99.99
2019-03-01T03:31:05.416Z,99.99
2019-03-01T03:31:31.560Z,99.99
2019-03-01T03:31:57.675Z,99.99
2019-03-01T03:32:23.855Z,99.99
2019-03-01T03:32:49.990Z,99.99
2019-03-01T03:33:16.174Z,99.99
2019-03-01T03:33:42.351Z,99.99
2019-03-01T03:34:08.468Z,99.99
2019-03-01T03:34:34.606Z,99.99
2019-03-01T03:35:00.744Z,99.99
2019-03-01T03:35:26.848Z,99.99
2019-03-01T03:35:52.983Z,99.99
2019-03-01T03:36:19.152Z,99.99
2019-03-01T03:36:45.322Z,99.99
2019-03-01T03:37:11.454Z,99.99
2019-03-01T03:37:37.638Z,99.99
2019-03-01T03:38:03.753Z,99.99
2019-03-01T03:38:29.913Z,99.99
2019-03-01T03:38:56.047Z,99.99
2019-03-01T03:39:22.199Z,99.99
2019-03-01T03:39:48.290Z,99.99
2019-03-01T03:40:14.400Z,99.99
2019-03-01T03:40:40.510Z,99.99
2019-03-01T03:41:06.640Z,99.99
2019-03-01T03:41:32.738Z,99.99
2019-03-01T03:41:58.845Z,99.99
2019-03-01T03:42:24.951Z,99.99
2019-03-01T03:42:51.110Z,99.99
2019-03-01T03:43:17.221Z,99.99
2019-03-01T03:43:43.827Z,99.99
2019-03-01T03:44:09.945Z,99.99
2019-03-01T03:44:36.072Z,99.99
2019-03-01T03:45:02.188Z,99.99
2019-03-01T03:45:28.340Z,99.99
2019-03-01T03:45:54.447Z,99.99
2019-03-01T03:46:20.564Z,99.99
2019-03-01T03:46:46.665Z,99.99
2019-03-01T03:47:12.801Z,99.99
2019-03-01T03:47:38.935Z,99.99
2019-03-01T03:48:05.108Z,99.99
2019-03-01T03:48:31.245Z,99.99
2019-03-01T03:48:57.552Z,99.99
2019-03-01T03:49:23.679Z,99.99
2019-03-01T03:49:49.786Z,99.61
2019-03-01T03:50:16.174Z,99.61
2019-03-01T03:50:42.298Z,99.42
2019-03-01T03:51:08.432Z,99.32
2019-03-01T03:51:34.544Z,99.04
2019-03-01T03:52:00.656Z,99.32
2019-03-01T03:52:26.816Z,99.13
2019-03-01T03:52:52.924Z,99.32
2019-03-01T03:53:19.022Z,99.42
2019-03-01T03:53:45.176Z,99.8
2019-03-01T03:54:11.270Z,99.99
2019-03-01T03:54:37.383Z,99.99
2019-03-01T03:55:03.512Z,99.99
2019-03-01T03:55:29.642Z,99.99
2019-03-01T03:55:55.753Z,99.99
2019-03-01T03:56:21.893Z,99.99
2019-03-01T03:56:48.059Z,99.99
2019-03-01T03:57:14.196Z,99.99
2019-03-01T03:57:40.356Z,99.99
2019-03-01T03:58:06.479Z,99.99
2019-03-01T03:58:32.583Z,99.99
2019-03-01T03:58:58.718Z,99.99
2019-03-01T03:59:24.851Z,99.99
2019-03-01T03:59:51.008Z,99.99
2019-03-01T04:00:17.146Z,99.99
2019-03-01T04:00:43.280Z,99.99
2019-03-01T04:01:09.386Z,99.99
2019-03-01T04:01:35.529Z,99.99
2019-03-01T04:02:01.626Z,99.99
2019-03-01T04:02:27.769Z,99.99
2019-03-01T04:02:53.873Z,99.99
2019-03-01T04:03:20.039Z,99.99
2019-03-01T04:03:46.162Z,99.99
2019-03-01T04:04:12.267Z,99.99
2019-03-01T04:04:38.382Z,99.99
2019-03-01T04:05:04.520Z,99.99
2019-03-01T04:05:30.619Z,99.99
2019-03-01T04:05:56.757Z,99.99
2019-03-01T04:06:22.897Z,99.99
2019-03-01T04:06:49.037Z,99.99
2019-03-01T04:07:15.153Z,99.99
2019-03-01T04:07:41.288Z,99.99
2019-03-01T04:08:07.398Z,99.99
2019-03-01T04:08:33.496Z,99.99
2019-03-01T04:08:59.599Z,99.99
2019-03-01T04:09:25.734Z,99.99
2019-03-01T04:09:51.848Z,99.99
2019-03-01T04:10:17.957Z,99.99
2019-03-01T04:10:44.066Z,99.99
2019-03-01T04:11:10.196Z,99.99
2019-03-01T04:11:36.310Z,99.99
2019-03-01T04:12:02.410Z,99.99
2019-03-01T04:12:28.526Z,99.99
2019-03-01T04:12:54.691Z,99.99
2019-03-01T04:13:21.821Z,99.99
2019-03-01T04:13:47.933Z,99.99
2019-03-01T04:14:14.072Z,99.99
2019-03-01T04:14:40.203Z,99.99
2019-03-01T04:15:06.435Z,99.99
2019-03-01T04:15:32.570Z,99.99
2019-03-01T04:15:58.672Z,99.99
2019-03-01T04:16:24.776Z,99.99
2019-03-01T04:16:50.916Z,99.99
2019-03-01T04:17:17.056Z,99.99
2019-03-01T04:17:43.164Z,99.99
2019-03-01T04:18:09.298Z,99.99
2019-03-01T04:18:35.427Z,99.99
2019-03-01T04:19:01.647Z,99.99
2019-03-01T04:19:27.783Z,99.99
2019-03-01T04:19:53.909Z,99.99
2019-03-01T04:20:20.047Z,99.99
2019-03-01T04:20:46.201Z,99.99
2019-03-01T04:21:12.310Z,99.99
2019-03-01T04:21:38.417Z,99.99
2019-03-01T04:22:04.568Z,99.99
2019-03-01T04:22:30.691Z,99.99
2019-03-01T04:22:56.796Z,99.99
2019-03-01T04:23:22.925Z,99.99
2019-03-01T04:23:49.054Z,99.99
2019-03-01T04:24:15.190Z,99.99
2019-03-01T04:24:41.328Z,99.99
2019-03-01T04:25:07.492Z,99.99
2019-03-01T04:25:33.599Z,99.99
2019-03-01T04:25:59.761Z,99.99
2019-03-01T04:26:25.873Z,99.99
2019-03-01T04:26:51.975Z,99.99
2019-03-01T04:27:18.082Z,99.99
2019-03-01T04:27:44.187Z,99.99
2019-03-01T04:28:10.291Z,99.99
2019-03-01T04:28:36.424Z,99.99
2019-03-01T04:29:02.535Z,99.99
2019-03-01T04:29:28.645Z,99.99
2019-03-01T04:29:54.757Z,99.99
2019-03-01T04:30:20.886Z,99.99
2019-03-01T04:30:46.988Z,99.99
2019-03-01T04:31:13.091Z,99.99
2019-03-01T04:31:39.229Z,99.99
2019-03-01T04:32:05.436Z,99.99
2019-03-01T04:32:31.546Z,99.99
2019-03-01T04:32:57.679Z,99.99
2019-03-01T04:33:23.807Z,99.99
2019-03-01T04:33:49.910Z,99.99
2019-03-01T04:34:16.563Z,99.99
2019-03-01T04:34:42.720Z,99.99
2019-03-01T04:35:08.858Z,99.99
2019-03-01T04:35:35.009Z,99.99
2019-03-01T04:36:01.153Z,99.99
2019-03-01T04:36:27.292Z,99.99
2019-03-01T04:36:53.425Z,99.99
2019-03-01T04:37:19.534Z,99.99
2019-03-01T04:37:45.634Z,99.99
2019-03-01T04:38:11.737Z,99.99
2019-03-01T04:38:37.843Z,99.99
2019-03-01T04:39:04.014Z,99.99
2019-03-01T04:39:30.145Z,99.99
2019-03-01T04:39:56.283Z,99.99
2019-03-01T04:40:22.410Z,99.99
2019-03-01T04:40:48.515Z,99.99
2019-03-01T04:41:14.623Z,99.99
2019-03-01T04:41:40.725Z,99.99
2019-03-01T04:42:06.832Z,99.99
2019-03-01T04:42:32.941Z,99.99
2019-03-01T04:42:59.109Z,99.99
2019-03-01T04:43:25.215Z,99.99
2019-03-01T04:43:51.330Z,99.99
2019-03-01T04:44:17.476Z,99.99
2019-03-01T04:44:43.617Z,99.99
2019-03-01T04:45:09.730Z,99.99
2019-03-01T04:45:35.859Z,99.99
2019-03-01T04:46:01.990Z,99.99
2019-03-01T04:46:28.127Z,99.99
2019-03-01T04:46:54.270Z,99.99
2019-03-01T04:47:20.381Z,99.99
2019-03-01T04:47:46.488Z,99.99
2019-03-01T04:48:12.595Z,99.99
2019-03-01T04:48:38.701Z,99.99
2019-03-01T04:49:04.809Z,99.99
2019-03-01T04:49:30.921Z,99.99
2019-03-01T04:49:57.024Z,99.99
2019-03-01T04:50:23.132Z,99.99
2019-03-01T04:50:49.267Z,99.99
2019-03-01T04:51:15.403Z,99.99
2019-03-01T04:51:43.487Z,99.99
2019-03-01T04:52:09.588Z,99.99
2019-03-01T04:52:35.696Z,99.99
2019-03-01T04:53:01.836Z,99.99
2019-03-01T04:53:27.946Z,99.99
2019-03-01T04:53:54.052Z,99.99
2019-03-01T04:54:20.149Z,99.99
2019-03-01T04:54:46.286Z,99.99
2019-03-01T04:55:12.396Z,99.99
2019-03-01T04:55:38.510Z,99.99
2019-03-01T04:56:04.638Z,99.99
2019-03-01T04:56:31.748Z,99.99
2019-03-01T04:56:57.843Z,99.99
2019-03-01T04:57:23.947Z,99.99
2019-03-01T04:57:50.051Z,99.99
2019-03-01T04:58:16.165Z,99.99
2019-03-01T04:58:42.320Z,99.99
2019-03-01T04:59:08.424Z,99.99
2019-03-01T04:59:34.531Z,99.99
2019-03-01T05:00:00.674Z,99.99
2019-03-01T05:00:26.774Z,99.99
2019-03-01T05:00:52.886Z,99.99
2019-03-01T05:01:19.022Z,99.99
2019-03-01T05:01:45.136Z,99.99
2019-03-01T05:02:11.238Z,99.99
2019-03-01T05:02:37.380Z,99.99
2019-03-01T05:03:03.489Z,99.99
2019-03-01T05:03:29.598Z,99.99
2019-03-01T05:03:55.705Z,99.99
2019-03-01T05:04:21.829Z,99.99
2019-03-01T05:04:47.944Z,99.99
2019-03-01T05:05:14.049Z,99.99
2019-03-01T05:05:40.157Z,99.99
2019-03-01T05:06:06.284Z,99.99
2019-03-01T05:06:32.394Z,99.99
2019-03-01T05:06:58.531Z,99.99
2019-03-01T05:07:24.639Z,99.99
2019-03-01T05:07:50.751Z,99.99
2019-03-01T05:08:16.853Z,99.99
2019-03-01T05:08:42.957Z,99.99
2019-03-01T05:09:09.100Z,99.99
2019-03-01T05:09:35.263Z,99.99
2019-03-01T05:10:01.369Z,99.99
2019-03-01T05:10:27.507Z,99.99
2019-03-01T05:10:53.609Z,99.99
2019-03-01T05:11:19.734Z,99.99
2019-03-01T05:11:45.847Z,99.99
2019-03-01T05:12:11.948Z,99.99
2019-03-01T05:12:38.066Z,99.99
2019-03-01T05:13:04.169Z,99.99
2019-03-01T05:13:30.274Z,99.99
2019-03-01T05:13:56.383Z,99.99
2019-03-01T05:14:22.490Z,99.99
2019-03-01T05:14:48.593Z,99.99
2019-03-01T05:15:14.762Z,99.99
2019-03-01T05:15:40.870Z,99.99
2019-03-01T05:16:06.984Z,99.99
2019-03-01T05:16:33.173Z,99.99
2019-03-01T05:16:59.279Z,99.99
2019-03-01T05:17:25.388Z,99.99
2019-03-01T05:17:51.492Z,99.99
2019-03-01T05:18:17.624Z,99.99
2019-03-01T05:18:43.734Z,99.99
2019-03-01T05:19:09.845Z,99.99
2019-03-01T05:19:35.946Z,99.99
2019-03-01T05:20:02.054Z,99.99
2019-03-01T05:20:30.426Z,99.99
2019-03-01T05:20:54.316Z,99.99
2019-03-01T05:21:20.421Z,99.99
2019-03-01T05:21:46.533Z,99.99
2019-03-01T05:22:12.662Z,99.99
2019-03-01T05:22:38.796Z,99.99
2019-03-01T05:23:04.902Z,99.99
2019-03-01T05:23:31.001Z,99.99
2019-03-01T05:23:57.111Z,99.99
2019-03-01T05:24:23.220Z,99.99
2019-03-01T05:24:49.322Z,99.99
2019-03-01T05:25:15.488Z,99.99
2019-03-01T05:25:41.654Z,99.99
2019-03-01T05:26:08.623Z,99.99
2019-03-01T05:26:34.735Z,99.99
2019-03-01T05:27:00.867Z,99.99
2019-03-01T05:27:26.977Z,99.99
2019-03-01T05:27:53.083Z,99.99
2019-03-01T05:28:19.187Z,99.99
2019-03-01T05:28:45.287Z,99.99
2019-03-01T05:29:11.399Z,99.99
2019-03-01T05:29:37.502Z,99.99
2019-03-01T05:30:03.612Z,99.99
2019-03-01T05:30:29.715Z,99.99
2019-03-01T05:30:55.822Z,99.99
2019-03-01T05:31:21.938Z,99.99
2019-03-01T05:31:48.038Z,99.99
2019-03-01T05:32:14.145Z,99.99
2019-03-01T05:32:40.254Z,99.99
2019-03-01T05:33:06.380Z,99.99
2019-03-01T05:33:32.523Z,99.99
2019-03-01T05:33:59.623Z,99.99
2019-03-01T05:34:25.729Z,99.99
2019-03-01T05:34:51.840Z,99.99
2019-03-01T05:35:17.954Z,99.99
2019-03-01T05:35:44.050Z,99.99
2019-03-01T05:36:10.159Z,99.99
2019-03-01T05:36:36.259Z,99.99
2019-03-01T05:37:02.372Z,99.99
2019-03-01T05:37:28.505Z,99.99